createdAt,value
2019-05-20T00:01:18.873Z,12.20
2019-05-20T00:03:52.318Z,12.68
2019-05-20T00:06:25.253Z,12.55
2019-05-20T00:08:58.123Z,12.18
2019-05-20T00:11:31.017Z,10.80
2019-05-20T00:14:03.728Z,8.88
2019-05-20T00:16:36.823Z,8.85
2019-05-20T00:19:09.799Z,8.30
2019-05-20T00:21:42.609Z,8.80
2019-05-20T00:24:15.997Z,8.73
2019-05-20T00:26:48.897Z,8.18
2019-05-20T00:29:21.770Z,8.45
2019-05-20T00:31:55.268Z,8.58
2019-05-20T00:34:35.258Z,9.18
2019-05-20T00:37:02.864Z,7.53
2019-05-20T00:39:35.725Z,8.10
2019-05-20T00:42:08.443Z,7.22
2019-05-20T00:44:41.563Z,8.25
2019-05-20T00:47:15.101Z,9.20
2019-05-20T00:49:48.379Z,7.70
2019-05-20T00:52:21.196Z,8.55
2019-05-20T00:54:54.034Z,7.92
2019-05-20T00:57:27.303Z,7.67
2019-05-20T01:00:00.135Z,7.58
2019-05-20T01:02:33.005Z,7.58
2019-05-20T01:05:06.198Z,7.90
2019-05-20T01:07:38.934Z,6.80
2019-05-20T01:10:11.811Z,7.20
2019-05-20T01:12:45.042Z,7.50
2019-05-20T01:15:17.803Z,7.20
2019-05-20T01:17:50.533Z,7.08
2019-05-20T01:20:23.833Z,6.60
2019-05-20T01:22:56.650Z,7.40
2019-05-20T01:25:29.407Z,6.85
2019-05-20T01:28:02.196Z,7.08
2019-05-20T01:30:35.183Z,6.67
2019-05-20T01:33:13.883Z,7.12
2019-05-20T01:35:42.388Z,6.65
2019-05-20T01:38:15.390Z,6.12
2019-05-20T01:40:48.516Z,7.25
2019-05-20T01:43:21.489Z,7.55
2019-05-20T01:45:54.388Z,8.28
2019-05-20T01:48:27.162Z,7.70
2019-05-20T01:51:00.017Z,8.15
2019-05-20T01:53:32.958Z,8.60
2019-05-20T01:56:05.733Z,7.92
2019-05-20T01:58:39.689Z,7.95
2019-05-20T02:01:13.284Z,8.48
2019-05-20T02:03:46.049Z,7.15
2019-05-20T02:06:19.084Z,8.73
2019-05-20T02:08:51.794Z,8.00
2019-05-20T02:11:24.588Z,8.03
2019-05-20T02:14:05.106Z,7.95
2019-05-20T02:16:38.581Z,7.75
2019-05-20T02:19:11.945Z,7.40
2019-05-20T02:21:45.262Z,7.60
2019-05-20T02:24:17.979Z,7.97
2019-05-20T02:26:51.047Z,7.17
2019-05-20T02:29:25.178Z,7.47
2019-05-20T02:31:58.645Z,7.35
2019-05-20T02:34:31.420Z,8.05
2019-05-20T02:37:04.145Z,7.35
2019-05-20T02:39:37.080Z,7.17
2019-05-20T02:42:09.874Z,7.50
2019-05-20T02:44:42.923Z,6.87
2019-05-20T02:47:15.728Z,7.72
2019-05-20T02:49:49.140Z,6.92
2019-05-20T02:52:22.205Z,7.45
2019-05-20T02:54:55.026Z,7.83
2019-05-20T02:57:28.421Z,7.60
2019-05-20T03:00:01.450Z,7.58
2019-05-20T03:02:34.474Z,7.70
2019-05-20T03:05:07.899Z,8.05
2019-05-20T03:07:40.813Z,7.87
2019-05-20T03:10:13.633Z,7.60
2019-05-20T03:12:46.385Z,7.70
2019-05-20T03:15:19.340Z,7.78
2019-05-20T03:17:52.338Z,8.43
2019-05-20T03:20:25.168Z,9.90
2019-05-20T03:22:58.314Z,10.70
2019-05-20T03:25:31.100Z,12.07
2019-05-20T03:28:04.633Z,11.33
2019-05-20T03:30:37.599Z,11.95
2019-05-20T03:33:10.468Z,11.60
2019-05-20T03:35:43.170Z,11.33
2019-05-20T03:38:16.281Z,12.10
2019-05-20T03:40:49.040Z,11.78
2019-05-20T03:43:22.214Z,11.93
2019-05-20T03:45:55.516Z,11.35
2019-05-20T03:48:28.373Z,10.95
2019-05-20T03:51:01.649Z,10.65
2019-05-20T03:53:34.421Z,10.53
2019-05-20T03:56:07.318Z,10.03
2019-05-20T03:58:40.130Z,9.93
2019-05-20T04:01:13.134Z,9.10
2019-05-20T04:03:46.250Z,9.48
2019-05-20T04:06:19.405Z,9.60
2019-05-20T04:08:52.216Z,10.10
2019-05-20T04:11:25.370Z,10.13
2019-05-20T04:13:58.251Z,9.50
2019-05-20T04:16:31.070Z,10.00
2019-05-20T04:19:04.049Z,10.80
2019-05-20T04:21:36.778Z,10.30
2019-05-20T04:24:09.601Z,10.43
2019-05-20T04:26:42.604Z,10.55
2019-05-20T04:29:15.484Z,11.88
2019-05-20T04:31:48.292Z,9.93
2019-05-20T04:34:21.069Z,9.90
2019-05-20T04:36:54.534Z,9.85
2019-05-20T04:39:27.603Z,10.10
2019-05-20T04:42:00.522Z,9.23
2019-05-20T04:44:33.419Z,9.73
2019-05-20T04:47:06.261Z,9.40
2019-05-20T04:49:39.005Z,9.68
2019-05-20T04:52:11.761Z,9.60
2019-05-20T04:54:44.548Z,9.48
2019-05-20T04:57:17.507Z,10.55
2019-05-20T04:59:50.490Z,9.25
2019-05-20T05:02:23.332Z,9.20
2019-05-20T05:04:56.536Z,10.55
2019-05-20T05:07:29.336Z,11.53
2019-05-20T05:10:02.387Z,10.98
2019-05-20T05:12:35.255Z,10.30
2019-05-20T05:15:08.295Z,10.32
2019-05-20T05:17:41.797Z,9.20
2019-05-20T05:20:18.198Z,10.45
2019-05-20T05:22:49.243Z,9.03
2019-05-20T05:25:22.050Z,9.40
2019-05-20T05:27:55.156Z,10.55
2019-05-20T05:30:27.964Z,10.03
2019-05-20T05:33:00.826Z,9.28
2019-05-20T05:35:33.674Z,9.88
2019-05-20T05:38:06.729Z,7.83
2019-05-20T05:40:39.938Z,7.05
2019-05-20T05:43:12.694Z,13.03
2019-05-20T05:45:45.558Z,13.15
2019-05-20T05:48:18.424Z,11.48
2019-05-20T05:50:51.688Z,10.18
2019-05-20T05:53:24.414Z,10.32
2019-05-20T05:55:57.288Z,10.70
2019-05-20T05:58:30.297Z,10.63
2019-05-20T06:01:03.471Z,10.48
2019-05-20T06:03:36.518Z,9.70
2019-05-20T06:06:12.514Z,9.90
2019-05-20T06:08:45.109Z,9.88
2019-05-20T06:11:17.885Z,8.65
2019-05-20T06:13:50.763Z,7.97
2019-05-20T06:16:35.806Z,9.18
2019-05-20T06:18:58.197Z,8.68
2019-05-20T06:21:31.469Z,8.40
2019-05-20T06:24:04.154Z,8.85
2019-05-20T06:26:37.013Z,8.95
2019-05-20T06:29:09.736Z,9.65
2019-05-20T06:31:42.529Z,9.35
2019-05-20T06:34:15.410Z,10.25
2019-05-20T06:36:49.836Z,8.98
2019-05-20T06:39:22.858Z,9.63
2019-05-20T06:41:56.283Z,9.15
2019-05-20T06:44:29.033Z,9.43
2019-05-20T06:47:01.937Z,9.68
2019-05-20T06:49:34.680Z,9.85
2019-05-20T06:52:07.425Z,9.48
2019-05-20T06:54:40.220Z,9.48
2019-05-20T06:57:13.460Z,10.70
2019-05-20T06:59:46.420Z,9.85
2019-05-20T07:02:19.193Z,10.08
2019-05-20T07:04:52.544Z,9.95
2019-05-20T07:07:25.738Z,9.18
2019-05-20T07:09:59.247Z,9.73
2019-05-20T07:12:40.655Z,10.53
2019-05-20T07:15:06.724Z,10.82
2019-05-20T07:17:39.570Z,10.30
2019-05-20T07:20:12.679Z,10.13
2019-05-20T07:22:55.865Z,10.55
2019-05-20T07:25:19.982Z,10.65
2019-05-20T07:27:52.908Z,10.23
2019-05-20T07:30:25.729Z,11.68
2019-05-20T07:32:58.548Z,11.60
2019-05-20T07:35:31.814Z,11.97
2019-05-20T07:38:04.533Z,8.48
2019-05-20T07:40:37.335Z,9.33
2019-05-20T07:43:10.073Z,11.18
2019-05-20T07:45:43.552Z,11.45
2019-05-20T07:48:17.514Z,11.57
2019-05-20T07:50:50.568Z,11.10
2019-05-20T07:53:23.477Z,10.38
2019-05-20T07:55:56.370Z,11.10
2019-05-20T07:58:29.324Z,10.72
2019-05-20T08:01:02.707Z,12.15
2019-05-20T08:03:38.619Z,12.10
2019-05-20T08:06:10.577Z,13.50
2019-05-20T08:08:43.649Z,15.10
2019-05-20T08:11:16.758Z,16.70
2019-05-20T08:13:49.697Z,15.90
2019-05-20T08:16:22.590Z,16.70
2019-05-20T08:18:55.414Z,15.63
2019-05-20T08:21:28.297Z,17.40
2019-05-20T08:24:01.260Z,16.85
2019-05-20T08:26:34.202Z,16.15
2019-05-20T08:29:07.494Z,13.90
2019-05-20T08:31:40.328Z,16.30
2019-05-20T08:34:13.078Z,13.70
2019-05-20T08:36:46.128Z,14.30
2019-05-20T08:39:18.848Z,16.35
2019-05-20T08:41:51.565Z,13.03
2019-05-20T08:44:24.276Z,15.55
2019-05-20T08:46:57.454Z,14.13
2019-05-20T08:49:30.994Z,12.15
2019-05-20T08:52:03.834Z,12.55
2019-05-20T08:54:40.270Z,14.13
2019-05-20T08:57:11.585Z,12.20
2019-05-20T08:59:44.870Z,11.60
2019-05-20T09:02:17.545Z,10.23
2019-05-20T09:04:50.370Z,8.65
2019-05-20T09:07:23.907Z,8.80
2019-05-20T09:09:56.789Z,9.05
2019-05-20T09:12:29.558Z,7.67
2019-05-20T09:15:02.517Z,8.18
2019-05-20T09:17:38.848Z,7.80
2019-05-20T09:20:09.881Z,8.80
2019-05-20T09:22:42.940Z,8.53
2019-05-20T09:25:15.969Z,8.90
2019-05-20T09:27:49.183Z,7.83
2019-05-20T09:30:22.541Z,8.65
2019-05-20T09:32:55.806Z,8.20
2019-05-20T09:35:28.880Z,9.18
2019-05-20T09:38:17.344Z,6.97
2019-05-20T09:40:36.983Z,8.08
2019-05-20T09:43:10.378Z,7.72
2019-05-20T09:45:43.194Z,8.18
2019-05-20T09:48:15.939Z,8.25
2019-05-20T09:50:49.056Z,8.50
2019-05-20T09:53:21.734Z,8.73
2019-05-20T09:55:54.530Z,7.20
2019-05-20T09:58:27.678Z,8.15
2019-05-20T10:01:00.408Z,8.73
2019-05-20T10:03:33.094Z,7.83
2019-05-20T10:06:06.013Z,7.67
2019-05-20T10:08:44.456Z,8.08
2019-05-20T10:11:13.825Z,7.87
2019-05-20T10:13:46.764Z,7.45
2019-05-20T10:16:19.960Z,7.03
2019-05-20T10:18:55.533Z,6.60
2019-05-20T10:21:28.274Z,7.80
2019-05-20T10:24:01.133Z,7.55
2019-05-20T10:26:34.196Z,8.03
2019-05-20T10:29:07.150Z,7.95
2019-05-20T10:31:39.981Z,8.33
2019-05-20T10:34:13.164Z,8.78
2019-05-20T10:36:46.151Z,8.55
2019-05-20T10:39:19.061Z,8.78
2019-05-20T10:41:51.843Z,8.50
2019-05-20T10:44:24.627Z,8.15
2019-05-20T10:46:57.381Z,7.05
2019-05-20T10:49:30.509Z,6.70
2019-05-20T10:52:03.409Z,6.45
2019-05-20T10:54:36.594Z,6.53
2019-05-20T10:57:09.732Z,5.90
2019-05-20T10:59:43.289Z,5.15
2019-05-20T11:02:16.739Z,5.10
2019-05-20T11:04:49.499Z,4.47
2019-05-20T11:07:22.402Z,4.10
2019-05-20T11:09:55.404Z,3.90
2019-05-20T11:12:28.433Z,3.85
2019-05-20T11:15:02.374Z,4.30
2019-05-20T11:17:35.850Z,4.30
2019-05-20T11:20:09.420Z,4.47
2019-05-20T11:22:42.521Z,3.70
2019-05-20T11:25:15.249Z,3.90
2019-05-20T11:27:48.114Z,3.40
2019-05-20T11:30:20.855Z,3.10
2019-05-20T11:32:53.833Z,3.50
2019-05-20T11:35:26.650Z,3.30
2019-05-20T11:37:59.654Z,3.92
2019-05-20T11:40:32.448Z,3.33
2019-05-20T11:43:05.393Z,2.55
2019-05-20T11:45:38.319Z,2.90
2019-05-20T11:48:11.244Z,2.87
2019-05-20T11:50:44.090Z,2.98
2019-05-20T11:53:17.003Z,2.95
2019-05-20T11:55:51.240Z,2.90
2019-05-20T11:58:23.958Z,3.02
2019-05-20T12:00:56.917Z,3.20
2019-05-20T12:03:29.814Z,3.08
2019-05-20T12:06:03.481Z,2.83
2019-05-20T12:08:37.365Z,2.55
2019-05-20T12:11:10.493Z,2.80
2019-05-20T12:13:43.323Z,3.15
2019-05-20T12:16:16.079Z,2.70
2019-05-20T12:18:49.604Z,2.80
2019-05-20T12:21:22.663Z,2.72
2019-05-20T12:23:55.428Z,2.80
2019-05-20T12:26:28.212Z,2.85
2019-05-20T12:29:00.968Z,2.50
2019-05-20T12:31:34.033Z,2.80
2019-05-20T12:34:06.909Z,2.67
2019-05-20T12:36:40.513Z,2.55
2019-05-20T12:39:13.398Z,2.58
2019-05-20T12:41:46.325Z,2.27
2019-05-20T12:44:19.706Z,2.58
2019-05-20T12:46:54.019Z,2.50
2019-05-20T12:49:28.773Z,2.27
2019-05-20T12:52:01.521Z,2.17
2019-05-20T12:54:34.451Z,2.30
2019-05-20T12:57:07.273Z,2.22
2019-05-20T12:59:40.054Z,2.22
2019-05-20T13:02:17.171Z,2.08
2019-05-20T13:04:51.059Z,2.37
2019-05-20T13:07:24.350Z,2.55
2019-05-20T13:09:57.160Z,2.47
2019-05-20T13:12:29.905Z,2.33
2019-05-20T13:15:02.802Z,2.60
2019-05-20T13:17:35.896Z,2.50
2019-05-20T13:20:09.242Z,2.60
2019-05-20T13:22:44.039Z,2.60
2019-05-20T13:25:16.687Z,2.62
2019-05-20T13:27:49.409Z,2.55
2019-05-20T13:30:22.289Z,2.40
2019-05-20T13:32:55.043Z,2.72
2019-05-20T13:35:28.689Z,2.92
2019-05-20T13:38:01.348Z,3.60
2019-05-20T13:40:46.048Z,2.70
2019-05-20T13:43:09.061Z,2.80
2019-05-20T13:45:42.029Z,2.62
2019-05-20T13:48:14.777Z,2.65
2019-05-20T13:50:47.584Z,2.60
2019-05-20T13:53:20.285Z,2.33
2019-05-20T13:55:53.160Z,2.22
2019-05-20T13:58:26.291Z,2.40
2019-05-20T14:00:59.146Z,1.90
2019-05-20T14:03:32.371Z,1.25
2019-05-20T14:06:05.336Z,0.93
2019-05-20T14:08:38.297Z,0.80
2019-05-20T14:11:11.185Z,0.72
2019-05-20T14:13:44.024Z,0.82
2019-05-20T14:16:16.894Z,1.00
2019-05-20T14:18:49.668Z,0.90
2019-05-20T14:21:22.519Z,1.40
2019-05-20T14:23:55.184Z,1.07
2019-05-20T14:26:28.009Z,1.32
2019-05-20T14:29:00.738Z,1.10
2019-05-20T14:31:33.488Z,1.30
2019-05-20T14:34:07.488Z,1.27
2019-05-20T14:36:40.610Z,1.10
2019-05-20T14:39:13.798Z,1.05
2019-05-20T14:41:46.771Z,1.12
2019-05-20T14:44:19.998Z,1.12
2019-05-20T14:46:52.948Z,1.00
2019-05-20T14:49:25.810Z,1.10
2019-05-20T14:51:59.024Z,1.00
2019-05-20T14:54:31.883Z,1.00
2019-05-20T14:57:04.723Z,0.70
2019-05-20T14:59:37.708Z,0.70
2019-05-20T15:02:11.101Z,0.70
2019-05-20T15:04:43.994Z,0.75
2019-05-20T15:07:29.074Z,0.80
2019-05-20T15:09:51.164Z,0.70
2019-05-20T15:12:23.970Z,0.60
2019-05-20T15:14:56.789Z,0.85
2019-05-20T15:17:29.569Z,0.82
2019-05-20T15:20:02.563Z,0.68
2019-05-20T15:22:35.479Z,0.85
2019-05-20T15:25:08.306Z,0.90
2019-05-20T15:27:41.423Z,0.70
2019-05-20T15:30:14.233Z,0.75
2019-05-20T15:32:48.152Z,0.80
2019-05-20T15:35:21.029Z,0.80
2019-05-20T15:37:53.969Z,0.80
2019-05-20T15:40:26.840Z,0.90
2019-05-20T15:42:59.578Z,0.93
2019-05-20T15:45:32.374Z,0.90
2019-05-20T15:48:05.170Z,0.90
2019-05-20T15:50:38.608Z,0.90
2019-05-20T15:53:12.570Z,1.10
2019-05-20T15:55:45.895Z,0.90
2019-05-20T15:58:18.636Z,0.95
2019-05-20T16:00:51.544Z,1.17
2019-05-20T16:03:24.379Z,1.30
2019-05-20T16:05:59.815Z,1.30
2019-05-20T16:08:31.741Z,1.42
2019-05-20T16:11:06.754Z,1.55
2019-05-20T16:13:38.938Z,2.35
2019-05-20T16:16:13.100Z,2.10
2019-05-20T16:18:46.362Z,2.17
2019-05-20T16:21:19.056Z,2.02
2019-05-20T16:23:51.964Z,2.00
2019-05-20T16:26:24.604Z,1.92
2019-05-20T16:28:58.005Z,2.20
2019-05-20T16:31:31.127Z,1.85
2019-05-20T16:34:03.884Z,1.87
2019-05-20T16:36:36.792Z,1.90
2019-05-20T16:39:09.579Z,1.60
2019-05-20T16:41:42.393Z,1.47
2019-05-20T16:44:15.253Z,1.30
2019-05-20T16:46:48.212Z,1.87
2019-05-20T16:49:20.926Z,2.10
2019-05-20T16:51:53.735Z,2.10
2019-05-20T16:54:26.539Z,2.20
2019-05-20T16:56:59.264Z,1.90
2019-05-20T16:59:32.139Z,1.70
2019-05-20T17:02:04.819Z,1.25
2019-05-20T17:04:38.409Z,1.20
2019-05-20T17:07:11.164Z,1.32
2019-05-20T17:09:44.554Z,1.10
2019-05-20T17:12:18.924Z,1.00
2019-05-20T17:14:51.643Z,1.10
2019-05-20T17:17:24.413Z,1.40
2019-05-20T17:19:57.159Z,1.40
2019-05-20T17:22:30.013Z,1.20
2019-05-20T17:25:02.777Z,1.07
2019-05-20T17:27:35.489Z,0.72
2019-05-20T17:30:08.391Z,1.00
2019-05-20T17:32:41.258Z,0.70
2019-05-20T17:35:14.386Z,0.68
2019-05-20T17:37:47.212Z,0.62
2019-05-20T17:40:20.123Z,0.80
2019-05-20T17:42:52.914Z,0.40
2019-05-20T17:45:25.831Z,0.50
2019-05-20T17:47:58.684Z,0.40
2019-05-20T17:50:31.414Z,0.42
2019-05-20T17:53:04.125Z,0.40
2019-05-20T17:55:36.994Z,0.50
2019-05-20T17:58:09.985Z,0.40
2019-05-20T18:00:43.091Z,0.55
2019-05-20T18:03:15.848Z,0.37
2019-05-20T18:05:48.734Z,0.62
2019-05-20T18:08:24.569Z,0.40
2019-05-20T18:10:56.206Z,18.32
2019-05-20T18:13:29.003Z,1.30
2019-05-20T18:16:01.716Z,1.20
2019-05-20T18:18:35.178Z,12.60
2019-05-20T18:21:08.149Z,4.80
2019-05-20T18:23:40.765Z,1.10
2019-05-20T18:26:13.998Z,1.47
2019-05-20T18:28:46.853Z,5.17
2019-05-20T18:31:31.839Z,1.20
2019-05-20T18:33:53.978Z,2.75
2019-05-20T18:36:27.163Z,0.60
2019-05-20T18:39:00.423Z,0.50
2019-05-20T18:41:33.159Z,0.50
2019-05-20T18:44:05.884Z,0.60
2019-05-20T18:46:39.023Z,0.50
2019-05-20T18:49:11.749Z,0.40
2019-05-20T18:51:44.799Z,0.57
2019-05-20T18:54:17.558Z,0.47
2019-05-20T18:56:50.572Z,0.57
2019-05-20T18:59:23.499Z,0.50
2019-05-20T19:02:04.991Z,0.57
2019-05-20T19:04:30.678Z,0.70
2019-05-20T19:07:03.491Z,0.50
2019-05-20T19:09:36.456Z,0.50
2019-05-20T19:12:10.042Z,0.40
2019-05-20T19:14:42.845Z,0.95
2019-05-20T19:17:15.667Z,0.80
2019-05-20T19:19:48.920Z,0.90
2019-05-20T19:22:21.837Z,1.05
2019-05-20T19:24:54.526Z,0.80
2019-05-20T19:27:28.032Z,0.45
2019-05-20T19:30:00.609Z,0.70
2019-05-20T19:32:33.565Z,0.78
2019-05-20T19:35:06.262Z,1.62
2019-05-20T19:37:39.904Z,2.08
2019-05-20T19:40:13.359Z,1.92
2019-05-20T19:42:46.281Z,1.77
2019-05-20T19:45:19.098Z,2.30
2019-05-20T19:47:52.051Z,1.52
2019-05-20T19:50:25.105Z,2.10
2019-05-20T19:52:58.531Z,1.35
2019-05-20T19:55:31.431Z,2.00
2019-05-20T19:58:04.226Z,1.60
2019-05-20T20:00:37.195Z,1.22
2019-05-20T20:03:09.982Z,1.00
2019-05-20T20:05:42.665Z,1.10
2019-05-20T20:08:16.040Z,0.98
2019-05-20T20:10:49.160Z,2.90
2019-05-20T20:13:21.871Z,2.95
2019-05-20T20:15:54.680Z,1.67
2019-05-20T20:18:27.836Z,1.32
2019-05-20T20:21:00.625Z,0.80
2019-05-20T20:23:33.561Z,0.80
2019-05-20T20:26:06.371Z,0.80
2019-05-20T20:28:40.270Z,0.70
2019-05-20T20:31:12.943Z,0.60
2019-05-20T20:33:45.729Z,0.70
2019-05-20T20:36:21.235Z,0.82
2019-05-20T20:38:53.002Z,0.60
2019-05-20T20:41:26.642Z,0.60
2019-05-20T20:43:59.403Z,0.70
2019-05-20T20:46:32.208Z,0.82
2019-05-20T20:49:04.928Z,0.62
2019-05-20T20:51:37.749Z,0.70
2019-05-20T20:54:10.568Z,0.53
2019-05-20T20:56:43.328Z,0.78
2019-05-20T20:59:16.353Z,0.40
2019-05-20T21:01:49.393Z,0.60
2019-05-20T21:04:22.289Z,0.70
2019-05-20T21:06:55.019Z,0.57
2019-05-20T21:09:27.779Z,0.70
2019-05-20T21:12:00.575Z,0.60
2019-05-20T21:14:33.758Z,0.57
2019-05-20T21:17:06.534Z,0.50
2019-05-20T21:19:39.463Z,0.42
2019-05-20T21:22:13.309Z,0.68
2019-05-20T21:24:46.035Z,0.60
2019-05-20T21:27:18.857Z,0.40
2019-05-20T21:29:52.039Z,0.53
2019-05-20T21:32:24.928Z,0.60
2019-05-20T21:34:57.748Z,0.55
2019-05-20T21:37:31.358Z,0.53
2019-05-20T21:40:04.124Z,0.70
2019-05-20T21:42:37.450Z,0.40
2019-05-20T21:45:10.488Z,0.60
2019-05-20T21:47:44.812Z,0.60
2019-05-20T21:50:17.884Z,0.50
2019-05-20T21:52:51.155Z,0.50
2019-05-20T21:55:23.893Z,0.50
2019-05-20T21:57:57.088Z,0.60
2019-05-20T22:00:37.843Z,0.60
2019-05-20T22:03:23.616Z,0.40
2019-05-20T22:05:45.215Z,0.50
2019-05-20T22:08:17.961Z,0.50
2019-05-20T22:10:50.867Z,0.40
2019-05-20T22:13:23.799Z,0.50
2019-05-20T22:15:56.613Z,0.50
2019-05-20T22:18:29.529Z,0.50
2019-05-20T22:21:02.395Z,0.50
2019-05-20T22:23:42.858Z,0.45
2019-05-20T22:26:15.763Z,0.60
2019-05-20T22:28:48.488Z,0.50
2019-05-20T22:31:21.584Z,0.42
2019-05-20T22:33:54.737Z,0.40
2019-05-20T22:36:27.549Z,0.50
2019-05-20T22:39:00.598Z,0.50
2019-05-20T22:41:33.444Z,0.37
2019-05-20T22:44:06.638Z,0.57
2019-05-20T22:46:39.862Z,0.40
2019-05-20T22:49:12.913Z,0.35
2019-05-20T22:51:45.786Z,0.60
2019-05-20T22:54:18.576Z,0.40
2019-05-20T22:56:51.350Z,0.50
2019-05-20T22:59:24.128Z,0.60
2019-05-20T23:01:56.838Z,0.60
2019-05-20T23:04:29.593Z,0.62
2019-05-20T23:07:02.845Z,0.68
2019-05-20T23:09:35.669Z,0.50
2019-05-20T23:12:08.579Z,0.50
2019-05-20T23:14:41.281Z,0.53
2019-05-20T23:17:14.170Z,0.50
2019-05-20T23:19:46.865Z,0.53
2019-05-20T23:22:19.739Z,0.50
2019-05-20T23:24:52.479Z,0.50
2019-05-20T23:27:25.774Z,0.50
2019-05-20T23:29:58.710Z,0.45
2019-05-20T23:32:31.997Z,0.50
2019-05-20T23:35:05.883Z,0.50
2019-05-20T23:37:38.614Z,0.50
2019-05-20T23:40:11.419Z,0.40
2019-05-20T23:42:44.233Z,0.55
2019-05-20T23:45:17.328Z,0.50
2019-05-20T23:47:50.154Z,0.50
2019-05-20T23:50:22.989Z,0.40
2019-05-20T23:52:56.061Z,0.33
2019-05-20T23:55:29.123Z,0.33
2019-05-20T23:58:02.318Z,0.70
